sensor_id;sensor_type;location;lat;lon;timestamp;temperature;humidity
39325;DHT22;25037;49.488;9.900;2023-03-30T00:01:11;11.90;64.50
39325;DHT22;25037;49.488;9.900;2023-03-30T00:03:40;11.90;64.60
39325;DHT22;25037;49.488;9.900;2023-03-30T00:06:09;11.90;64.60
39325;DHT22;25037;49.488;9.900;2023-03-30T00:08:37;11.90;64.60
39325;DHT22;25037;49.488;9.900;2023-03-30T00:11:10;11.90;64.70
39325;DHT22;25037;49.488;9.900;2023-03-30T00:13:38;11.90;64.90
39325;DHT22;25037;49.488;9.900;2023-03-30T00:16:07;11.90;64.80
39325;DHT22;25037;49.488;9.900;2023-03-30T00:18:34;11.90;64.90
39325;DHT22;25037;49.488;9.900;2023-03-30T00:21:02;12.00;65.00
39325;DHT22;25037;49.488;9.900;2023-03-30T00:23:30;12.00;65.00
39325;DHT22;25037;49.488;9.900;2023-03-30T00:25:58;12.00;65.00
39325;DHT22;25037;49.488;9.900;2023-03-30T00:28:24;12.00;65.00
39325;DHT22;25037;49.488;9.900;2023-03-30T00:30:52;12.10;65.00
39325;DHT22;25037;49.488;9.900;2023-03-30T00:33:19;12.10;64.90
39325;DHT22;25037;49.488;9.900;2023-03-30T00:36:03;12.10;64.80
39325;DHT22;25037;49.488;9.900;2023-03-30T00:38:30;12.10;64.40
39325;DHT22;25037;49.488;9.900;2023-03-30T00:40:58;12.20;64.40
39325;DHT22;25037;49.488;9.900;2023-03-30T00:43:26;12.30;64.40
39325;DHT22;25037;49.488;9.900;2023-03-30T00:45:55;12.30;64.20
39325;DHT22;25037;49.488;9.900;2023-03-30T00:48:30;12.40;64.20
39325;DHT22;25037;49.488;9.900;2023-03-30T00:51:01;12.40;63.90
39325;DHT22;25037;49.488;9.900;2023-03-30T00:53:36;12.50;64.00
39325;DHT22;25037;49.488;9.900;2023-03-30T00:56:05;12.60;63.80
39325;DHT22;25037;49.488;9.900;2023-03-30T00:58:34;12.70;63.70
39325;DHT22;25037;49.488;9.900;2023-03-30T01:01:03;12.70;63.80
39325;DHT22;25037;49.488;9.900;2023-03-30T01:03:36;12.80;64.10
39325;DHT22;25037;49.488;9.900;2023-03-30T01:06:05;12.80;64.10
39325;DHT22;25037;49.488;9.900;2023-03-30T01:08:36;12.90;64.00
39325;DHT22;25037;49.488;9.900;2023-03-30T01:11:05;12.90;63.90
39325;DHT22;25037;49.488;9.900;2023-03-30T01:13:38;13.00;63.90
39325;DHT22;25037;49.488;9.900;2023-03-30T01:16:23;13.10;64.00
39325;DHT22;25037;49.488;9.900;2023-03-30T01:22:07;13.20;63.60
39325;DHT22;25037;49.488;9.900;2023-03-30T01:25:10;13.20;63.50
39325;DHT22;25037;49.488;9.900;2023-03-30T01:28:07;13.30;63.40
39325;DHT22;25037;49.488;9.900;2023-03-30T01:37:10;13.30;63.40
39325;DHT22;25037;49.488;9.900;2023-03-30T01:45:16;13.40;63.20
39325;DHT22;25037;49.488;9.900;2023-03-30T01:47:57;13.40;63.50
39325;DHT22;25037;49.488;9.900;2023-03-30T01:50:37;13.40;63.30
39325;DHT22;25037;49.488;9.900;2023-03-30T01:53:25;13.40;63.40
39325;DHT22;25037;49.488;9.900;2023-03-30T01:58:29;13.40;63.30
39325;DHT22;25037;49.488;9.900;2023-03-30T02:00:59;13.50;63.40
39325;DHT22;25037;49.488;9.900;2023-03-30T02:03:32;13.50;63.40
39325;DHT22;25037;49.488;9.900;2023-03-30T02:06:14;13.40;63.40
39325;DHT22;25037;49.488;9.900;2023-03-30T02:08:43;13.40;63.50
39325;DHT22;25037;49.488;9.900;2023-03-30T02:11:11;13.30;63.20
39325;DHT22;25037;49.488;9.900;2023-03-30T02:13:39;13.30;63.40
39325;DHT22;25037;49.488;9.900;2023-03-30T02:16:44;13.30;63.60
39325;DHT22;25037;49.488;9.900;2023-03-30T02:19:11;13.30;63.50
39325;DHT22;25037;49.488;9.900;2023-03-30T02:21:38;13.30;63.60
39325;DHT22;25037;49.488;9.900;2023-03-30T02:24:07;13.30;63.60
39325;DHT22;25037;49.488;9.900;2023-03-30T02:26:36;13.30;63.70
39325;DHT22;25037;49.488;9.900;2023-03-30T02:29:03;13.30;63.60
39325;DHT22;25037;49.488;9.900;2023-03-30T02:31:29;13.30;63.60
39325;DHT22;25037;49.488;9.900;2023-03-30T02:34:19;13.40;63.70
39325;DHT22;25037;49.488;9.900;2023-03-30T02:39:54;13.40;63.70
39325;DHT22;25037;49.488;9.900;2023-03-30T02:53:31;13.30;63.90
39325;DHT22;25037;49.488;9.900;2023-03-30T02:58:48;13.30;64.00
39325;DHT22;25037;49.488;9.900;2023-03-30T03:01:19;13.30;64.00
39325;DHT22;25037;49.488;9.900;2023-03-30T03:03:49;13.30;64.00
39325;DHT22;25037;49.488;9.900;2023-03-30T03:06:17;13.30;64.00
39325;DHT22;25037;49.488;9.900;2023-03-30T03:08:45;13.30;64.00
39325;DHT22;25037;49.488;9.900;2023-03-30T03:11:15;13.30;64.00
39325;DHT22;25037;49.488;9.900;2023-03-30T03:13:42;13.30;64.10
39325;DHT22;25037;49.488;9.900;2023-03-30T03:16:10;13.20;64.20
39325;DHT22;25037;49.488;9.900;2023-03-30T03:18:38;13.20;64.30
39325;DHT22;25037;49.488;9.900;2023-03-30T03:21:08;13.20;64.40
39325;DHT22;25037;49.488;9.900;2023-03-30T03:23:35;13.20;64.50
39325;DHT22;25037;49.488;9.900;2023-03-30T03:26:03;13.20;64.70
39325;DHT22;25037;49.488;9.900;2023-03-30T03:28:30;13.20;64.80
39325;DHT22;25037;49.488;9.900;2023-03-30T03:30:57;13.20;64.80
39325;DHT22;25037;49.488;9.900;2023-03-30T03:33:26;13.20;64.90
39325;DHT22;25037;49.488;9.900;2023-03-30T03:35:53;13.30;64.90
39325;DHT22;25037;49.488;9.900;2023-03-30T03:38:20;13.30;65.20
39325;DHT22;25037;49.488;9.900;2023-03-30T03:40:51;13.30;65.50
39325;DHT22;25037;49.488;9.900;2023-03-30T03:43:18;13.40;65.90
39325;DHT22;25037;49.488;9.900;2023-03-30T03:45:46;13.40;66.20
39325;DHT22;25037;49.488;9.900;2023-03-30T03:48:14;13.50;66.70
39325;DHT22;25037;49.488;9.900;2023-03-30T03:50:42;13.60;67.10
39325;DHT22;25037;49.488;9.900;2023-03-30T03:53:09;13.60;67.30
39325;DHT22;25037;49.488;9.900;2023-03-30T03:55:37;13.70;67.60
39325;DHT22;25037;49.488;9.900;2023-03-30T03:58:04;13.70;67.60
39325;DHT22;25037;49.488;9.900;2023-03-30T04:00:31;13.80;67.70
39325;DHT22;25037;49.488;9.900;2023-03-30T04:02:59;13.80;67.90
39325;DHT22;25037;49.488;9.900;2023-03-30T04:05:26;13.90;68.00
39325;DHT22;25037;49.488;9.900;2023-03-30T04:07:53;13.90;68.20
39325;DHT22;25037;49.488;9.900;2023-03-30T04:10:22;13.90;68.30
39325;DHT22;25037;49.488;9.900;2023-03-30T04:12:49;13.90;68.40
39325;DHT22;25037;49.488;9.900;2023-03-30T04:15:16;14.00;68.50
39325;DHT22;25037;49.488;9.900;2023-03-30T04:17:42;14.00;68.60
39325;DHT22;25037;49.488;9.900;2023-03-30T04:20:13;13.90;68.80
39325;DHT22;25037;49.488;9.900;2023-03-30T04:22:40;13.90;68.90
39325;DHT22;25037;49.488;9.900;2023-03-30T04:25:11;13.90;69.10
39325;DHT22;25037;49.488;9.900;2023-03-30T04:27:41;13.90;69.50
39325;DHT22;25037;49.488;9.900;2023-03-30T04:30:11;13.90;69.40
39325;DHT22;25037;49.488;9.900;2023-03-30T04:32:38;13.90;69.60
39325;DHT22;25037;49.488;9.900;2023-03-30T04:35:05;13.90;69.80
39325;DHT22;25037;49.488;9.900;2023-03-30T04:37:32;13.90;70.00
39325;DHT22;25037;49.488;9.900;2023-03-30T04:40:01;13.80;70.20
39325;DHT22;25037;49.488;9.900;2023-03-30T04:42:32;13.80;70.30
39325;DHT22;25037;49.488;9.900;2023-03-30T04:45:04;13.80;70.30
39325;DHT22;25037;49.488;9.900;2023-03-30T04:47:31;13.80;70.50
39325;DHT22;25037;49.488;9.900;2023-03-30T04:49:58;13.80;70.60
39325;DHT22;25037;49.488;9.900;2023-03-30T04:52:26;13.80;70.70
39325;DHT22;25037;49.488;9.900;2023-03-30T04:54:53;13.90;70.70
39325;DHT22;25037;49.488;9.900;2023-03-30T04:57:20;13.90;70.70
39325;DHT22;25037;49.488;9.900;2023-03-30T04:59:46;14.00;70.70
39325;DHT22;25037;49.488;9.900;2023-03-30T05:02:13;14.00;70.70
39325;DHT22;25037;49.488;9.900;2023-03-30T05:04:41;14.00;70.70
39325;DHT22;25037;49.488;9.900;2023-03-30T05:07:08;14.00;70.80
39325;DHT22;25037;49.488;9.900;2023-03-30T05:09:35;14.00;70.80
39325;DHT22;25037;49.488;9.900;2023-03-30T05:12:01;14.10;70.70
39325;DHT22;25037;49.488;9.900;2023-03-30T05:14:30;14.10;70.70
39325;DHT22;25037;49.488;9.900;2023-03-30T05:16:56;14.20;70.70
39325;DHT22;25037;49.488;9.900;2023-03-30T05:19:24;14.20;70.80
39325;DHT22;25037;49.488;9.900;2023-03-30T05:21:51;14.20;70.80
39325;DHT22;25037;49.488;9.900;2023-03-30T05:24:17;14.20;70.80
39325;DHT22;25037;49.488;9.900;2023-03-30T05:26:44;14.30;70.90
39325;DHT22;25037;49.488;9.900;2023-03-30T05:29:11;14.30;70.90
39325;DHT22;25037;49.488;9.900;2023-03-30T05:31:37;14.30;70.90
39325;DHT22;25037;49.488;9.900;2023-03-30T05:34:05;14.30;70.90
39325;DHT22;25037;49.488;9.900;2023-03-30T05:36:32;14.30;70.90
39325;DHT22;25037;49.488;9.900;2023-03-30T05:39:00;14.30;70.90
39325;DHT22;25037;49.488;9.900;2023-03-30T05:41:30;14.30;70.90
39325;DHT22;25037;49.488;9.900;2023-03-30T05:43:57;14.40;70.90
39325;DHT22;25037;49.488;9.900;2023-03-30T05:46:23;14.40;71.00
39325;DHT22;25037;49.488;9.900;2023-03-30T05:48:50;14.40;71.00
39325;DHT22;25037;49.488;9.900;2023-03-30T05:51:17;14.40;71.10
39325;DHT22;25037;49.488;9.900;2023-03-30T05:53:44;14.40;71.20
39325;DHT22;25037;49.488;9.900;2023-03-30T05:56:10;14.50;71.20
39325;DHT22;25037;49.488;9.900;2023-03-30T05:58:37;14.50;71.20
39325;DHT22;25037;49.488;9.900;2023-03-30T06:01:04;14.70;71.10
39325;DHT22;25037;49.488;9.900;2023-03-30T06:03:31;14.70;71.00
39325;DHT22;25037;49.488;9.900;2023-03-30T06:05:58;14.80;71.00
39325;DHT22;25037;49.488;9.900;2023-03-30T06:08:25;14.80;71.20
39325;DHT22;25037;49.488;9.900;2023-03-30T06:10:54;14.70;71.40
39325;DHT22;25037;49.488;9.900;2023-03-30T06:13:21;14.70;71.60
39325;DHT22;25037;49.488;9.900;2023-03-30T06:15:47;14.80;71.80
39325;DHT22;25037;49.488;9.900;2023-03-30T06:18:14;14.80;71.90
39325;DHT22;25037;49.488;9.900;2023-03-30T06:20:41;14.80;72.00
39325;DHT22;25037;49.488;9.900;2023-03-30T06:23:08;14.80;72.00
39325;DHT22;25037;49.488;9.900;2023-03-30T06:25:34;14.80;72.00
39325;DHT22;25037;49.488;9.900;2023-03-30T06:28:02;14.90;72.10
39325;DHT22;25037;49.488;9.900;2023-03-30T06:30:29;14.80;72.20
39325;DHT22;25037;49.488;9.900;2023-03-30T06:32:55;14.80;72.30
39325;DHT22;25037;49.488;9.900;2023-03-30T06:35:22;14.80;72.50
39325;DHT22;25037;49.488;9.900;2023-03-30T06:37:49;14.80;72.50
39325;DHT22;25037;49.488;9.900;2023-03-30T06:40:16;14.80;72.60
39325;DHT22;25037;49.488;9.900;2023-03-30T06:42:43;14.80;72.60
39325;DHT22;25037;49.488;9.900;2023-03-30T06:45:10;14.80;72.70
39325;DHT22;25037;49.488;9.900;2023-03-30T06:47:37;14.90;72.70
39325;DHT22;25037;49.488;9.900;2023-03-30T06:50:05;14.90;72.40
39325;DHT22;25037;49.488;9.900;2023-03-30T06:52:35;14.90;72.10
39325;DHT22;25037;49.488;9.900;2023-03-30T06:55:03;15.00;71.90
39325;DHT22;25037;49.488;9.900;2023-03-30T06:57:30;15.00;72.00
39325;DHT22;25037;49.488;9.900;2023-03-30T06:59:57;15.00;72.30
39325;DHT22;25037;49.488;9.900;2023-03-30T07:02:24;15.10;72.40
39325;DHT22;25037;49.488;9.900;2023-03-30T07:04:51;15.00;72.50
39325;DHT22;25037;49.488;9.900;2023-03-30T07:07:18;15.10;72.70
39325;DHT22;25037;49.488;9.900;2023-03-30T07:09:45;15.10;72.80
39325;DHT22;25037;49.488;9.900;2023-03-30T07:12:11;15.10;72.80
39325;DHT22;25037;49.488;9.900;2023-03-30T07:14:38;15.10;72.90
39325;DHT22;25037;49.488;9.900;2023-03-30T07:17:05;15.10;73.00
39325;DHT22;25037;49.488;9.900;2023-03-30T07:19:33;15.20;73.10
39325;DHT22;25037;49.488;9.900;2023-03-30T07:22:00;15.20;73.10
39325;DHT22;25037;49.488;9.900;2023-03-30T07:24:27;15.20;73.20
39325;DHT22;25037;49.488;9.900;2023-03-30T07:26:56;15.20;73.40
39325;DHT22;25037;49.488;9.900;2023-03-30T07:29:23;15.20;73.50
39325;DHT22;25037;49.488;9.900;2023-03-30T07:31:50;15.20;73.70
39325;DHT22;25037;49.488;9.900;2023-03-30T07:34:16;15.10;73.70
39325;DHT22;25037;49.488;9.900;2023-03-30T07:36:43;15.20;73.80
39325;DHT22;25037;49.488;9.900;2023-03-30T07:39:10;15.20;73.90
39325;DHT22;25037;49.488;9.900;2023-03-30T07:41:37;15.20;73.90
39325;DHT22;25037;49.488;9.900;2023-03-30T07:44:03;15.10;74.00
39325;DHT22;25037;49.488;9.900;2023-03-30T07:46:30;15.10;74.10
39325;DHT22;25037;49.488;9.900;2023-03-30T07:48:57;15.10;74.20
39325;DHT22;25037;49.488;9.900;2023-03-30T07:51:23;15.10;74.30
39325;DHT22;25037;49.488;9.900;2023-03-30T07:53:53;15.10;74.30
39325;DHT22;25037;49.488;9.900;2023-03-30T07:56:20;15.10;74.30
39325;DHT22;25037;49.488;9.900;2023-03-30T07:58:46;15.10;74.40
39325;DHT22;25037;49.488;9.900;2023-03-30T08:01:13;15.10;74.40
39325;DHT22;25037;49.488;9.900;2023-03-30T08:03:40;15.20;74.50
39325;DHT22;25037;49.488;9.900;2023-03-30T08:06:06;15.20;74.60
39325;DHT22;25037;49.488;9.900;2023-03-30T08:08:34;15.20;74.60
39325;DHT22;25037;49.488;9.900;2023-03-30T08:11:01;15.20;74.60
39325;DHT22;25037;49.488;9.900;2023-03-30T08:13:28;15.20;74.60
39325;DHT22;25037;49.488;9.900;2023-03-30T08:15:55;15.20;74.60
39325;DHT22;25037;49.488;9.900;2023-03-30T08:18:21;15.20;74.70
39325;DHT22;25037;49.488;9.900;2023-03-30T08:20:52;15.20;74.70
39325;DHT22;25037;49.488;9.900;2023-03-30T08:23:20;15.20;74.80
39325;DHT22;25037;49.488;9.900;2023-03-30T08:25:47;15.20;74.80
39325;DHT22;25037;49.488;9.900;2023-03-30T08:28:18;15.10;74.80
39325;DHT22;25037;49.488;9.900;2023-03-30T08:30:46;15.10;74.80
39325;DHT22;25037;49.488;9.900;2023-03-30T08:33:13;15.20;74.80
39325;DHT22;25037;49.488;9.900;2023-03-30T08:35:44;15.20;74.70
39325;DHT22;25037;49.488;9.900;2023-03-30T08:38:13;15.20;74.80
39325;DHT22;25037;49.488;9.900;2023-03-30T08:40:45;15.30;74.60
39325;DHT22;25037;49.488;9.900;2023-03-30T08:45:58;15.40;74.40
39325;DHT22;25037;49.488;9.900;2023-03-30T08:48:28;15.40;74.30
39325;DHT22;25037;49.488;9.900;2023-03-30T08:51:04;15.40;74.20
39325;DHT22;25037;49.488;9.900;2023-03-30T08:53:33;15.50;74.30
39325;DHT22;25037;49.488;9.900;2023-03-30T08:56:07;15.50;74.10
39325;DHT22;25037;49.488;9.900;2023-03-30T08:59:01;15.50;74.10
39325;DHT22;25037;49.488;9.900;2023-03-30T09:07:10;15.70;73.80
39325;DHT22;25037;49.488;9.900;2023-03-30T09:09:47;15.70;73.70
39325;DHT22;25037;49.488;9.900;2023-03-30T09:15:21;15.70;73.50
39325;DHT22;25037;49.488;9.900;2023-03-30T09:17:54;15.80;73.30
39325;DHT22;25037;49.488;9.900;2023-03-30T09:20:30;15.80;73.00
39325;DHT22;25037;49.488;9.900;2023-03-30T09:22:59;15.90;72.80
39325;DHT22;25037;49.488;9.900;2023-03-30T09:28:29;16.10;72.20
39325;DHT22;25037;49.488;9.900;2023-03-30T09:31:13;16.10;71.80
39325;DHT22;25037;49.488;9.900;2023-03-30T09:33:56;16.10;71.60
39325;DHT22;25037;49.488;9.900;2023-03-30T09:39:00;16.30;71.40
39325;DHT22;25037;49.488;9.900;2023-03-30T09:44:37;16.40;71.50
39325;DHT22;25037;49.488;9.900;2023-03-30T09:47:19;16.40;71.30
39325;DHT22;25037;49.488;9.900;2023-03-30T09:49:47;16.50;71.10
39325;DHT22;25037;49.488;9.900;2023-03-30T09:52:25;16.50;71.30
39325;DHT22;25037;49.488;9.900;2023-03-30T09:54:52;16.60;71.10
39325;DHT22;25037;49.488;9.900;2023-03-30T09:57:27;16.70;71.00
39325;DHT22;25037;49.488;9.900;2023-03-30T09:59:56;16.70;70.60
39325;DHT22;25037;49.488;9.900;2023-03-30T10:02:25;16.80;70.50
39325;DHT22;25037;49.488;9.900;2023-03-30T10:04:54;17.00;70.00
39325;DHT22;25037;49.488;9.900;2023-03-30T10:07:37;17.30;69.60
39325;DHT22;25037;49.488;9.900;2023-03-30T10:13:14;17.80;68.90
39325;DHT22;25037;49.488;9.900;2023-03-30T10:15:44;17.80;68.40
39325;DHT22;25037;49.488;9.900;2023-03-30T10:18:24;17.70;68.40
39325;DHT22;25037;49.488;9.900;2023-03-30T10:21:15;17.70;67.70
39325;DHT22;25037;49.488;9.900;2023-03-30T10:23:43;17.80;67.30
39325;DHT22;25037;49.488;9.900;2023-03-30T10:26:18;17.80;67.10
39325;DHT22;25037;49.488;9.900;2023-03-30T10:28:56;17.80;66.90
39325;DHT22;25037;49.488;9.900;2023-03-30T10:31:26;17.90;66.70
39325;DHT22;25037;49.488;9.900;2023-03-30T10:33:56;17.80;66.50
39325;DHT22;25037;49.488;9.900;2023-03-30T10:36:31;18.00;66.40
39325;DHT22;25037;49.488;9.900;2023-03-30T10:41:38;18.30;65.90
39325;DHT22;25037;49.488;9.900;2023-03-30T10:47:20;18.30;65.60
39325;DHT22;25037;49.488;9.900;2023-03-30T11:03:32;18.40;64.50
39325;DHT22;25037;49.488;9.900;2023-03-30T11:06:08;18.40;64.40
39325;DHT22;25037;49.488;9.900;2023-03-30T11:08:40;18.50;64.00
39325;DHT22;25037;49.488;9.900;2023-03-30T11:11:13;18.50;64.00
39325;DHT22;25037;49.488;9.900;2023-03-30T11:13:44;18.50;63.80
39325;DHT22;25037;49.488;9.900;2023-03-30T11:16:26;18.50;63.70
39325;DHT22;25037;49.488;9.900;2023-03-30T11:18:59;18.70;63.50
39325;DHT22;25037;49.488;9.900;2023-03-30T11:24:20;19.00;62.70
39325;DHT22;25037;49.488;9.900;2023-03-30T11:27:02;19.00;62.30
39325;DHT22;25037;49.488;9.900;2023-03-30T11:29:55;19.10;62.40
39325;DHT22;25037;49.488;9.900;2023-03-30T11:35:16;19.20;62.20
39325;DHT22;25037;49.488;9.900;2023-03-30T11:40:46;19.40;61.10
39325;DHT22;25037;49.488;9.900;2023-03-30T11:43:18;19.40;60.80
39325;DHT22;25037;49.488;9.900;2023-03-30T11:48:29;19.60;59.90
39325;DHT22;25037;49.488;9.900;2023-03-30T11:51:33;19.50;59.50
39325;DHT22;25037;49.488;9.900;2023-03-30T11:57:37;19.30;58.70
39325;DHT22;25037;49.488;9.900;2023-03-30T12:05:34;19.30;58.30
39325;DHT22;25037;49.488;9.900;2023-03-30T12:08:29;19.40;58.50
39325;DHT22;25037;49.488;9.900;2023-03-30T12:11:06;19.40;58.50
39325;DHT22;25037;49.488;9.900;2023-03-30T12:13:38;19.30;58.10
39325;DHT22;25037;49.488;9.900;2023-03-30T12:16:39;19.10;58.30
39325;DHT22;25037;49.488;9.900;2023-03-30T12:19:17;19.10;58.40
39325;DHT22;25037;49.488;9.900;2023-03-30T12:22:00;19.20;58.40
39325;DHT22;25037;49.488;9.900;2023-03-30T12:24:44;19.40;57.90
39325;DHT22;25037;49.488;9.900;2023-03-30T12:27:14;19.80;57.40
39325;DHT22;25037;49.488;9.900;2023-03-30T12:29:49;20.10;56.90
39325;DHT22;25037;49.488;9.900;2023-03-30T12:32:26;20.30;56.60
39325;DHT22;25037;49.488;9.900;2023-03-30T12:34:56;20.30;55.80
39325;DHT22;25037;49.488;9.900;2023-03-30T12:37:30;20.40;55.20
39325;DHT22;25037;49.488;9.900;2023-03-30T12:40:04;20.50;54.90
39325;DHT22;25037;49.488;9.900;2023-03-30T12:42:39;20.50;54.70
39325;DHT22;25037;49.488;9.900;2023-03-30T12:48:06;20.50;53.80
39325;DHT22;25037;49.488;9.900;2023-03-30T12:56:35;20.60;54.00
39325;DHT22;25037;49.488;9.900;2023-03-30T13:04:46;20.70;52.70
39325;DHT22;25037;49.488;9.900;2023-03-30T13:07:20;20.70;52.50
39325;DHT22;25037;49.488;9.900;2023-03-30T13:09:57;20.70;52.00
39325;DHT22;25037;49.488;9.900;2023-03-30T13:12:39;20.60;51.70
39325;DHT22;25037;49.488;9.900;2023-03-30T13:18:00;20.30;52.00
39325;DHT22;25037;49.488;9.900;2023-03-30T13:20:33;20.30;52.30
39325;DHT22;25037;49.488;9.900;2023-03-30T13:23:25;20.20;52.40
39325;DHT22;25037;49.488;9.900;2023-03-30T13:26:24;20.10;52.10
39325;DHT22;25037;49.488;9.900;2023-03-30T13:29:08;20.10;52.70
39325;DHT22;25037;49.488;9.900;2023-03-30T13:31:49;20.20;53.50
39325;DHT22;25037;49.488;9.900;2023-03-30T13:37:53;20.20;53.20
39325;DHT22;25037;49.488;9.900;2023-03-30T13:40:29;20.20;53.40
39325;DHT22;25037;49.488;9.900;2023-03-30T13:43:24;20.20;53.60
39325;DHT22;25037;49.488;9.900;2023-03-30T13:51:42;20.20;53.60
39325;DHT22;25037;49.488;9.900;2023-03-30T13:54:16;20.30;53.40
39325;DHT22;25037;49.488;9.900;2023-03-30T13:57:09;20.50;52.50
39325;DHT22;25037;49.488;9.900;2023-03-30T13:59:49;20.70;52.00
39325;DHT22;25037;49.488;9.900;2023-03-30T14:02:18;20.90;51.10
39325;DHT22;25037;49.488;9.900;2023-03-30T14:04:46;21.00;50.40
39325;DHT22;25037;49.488;9.900;2023-03-30T14:07:20;21.00;50.00
39325;DHT22;25037;49.488;9.900;2023-03-30T14:10:06;20.70;49.70
39325;DHT22;25037;49.488;9.900;2023-03-30T14:12:37;20.50;50.20
39325;DHT22;25037;49.488;9.900;2023-03-30T14:15:17;20.30;50.80
39325;DHT22;25037;49.488;9.900;2023-03-30T14:17:49;20.20;50.90
39325;DHT22;25037;49.488;9.900;2023-03-30T14:23:15;20.00;51.40
39325;DHT22;25037;49.488;9.900;2023-03-30T14:25:44;19.80;52.80
39325;DHT22;25037;49.488;9.900;2023-03-30T14:28:19;19.70;53.10
39325;DHT22;25037;49.488;9.900;2023-03-30T14:30:50;19.70;53.60
39325;DHT22;25037;49.488;9.900;2023-03-30T14:33:18;19.70;52.70
39325;DHT22;25037;49.488;9.900;2023-03-30T14:35:56;19.60;52.90
39325;DHT22;25037;49.488;9.900;2023-03-30T14:38:35;19.60;52.70
39325;DHT22;25037;49.488;9.900;2023-03-30T14:41:10;19.70;52.60
39325;DHT22;25037;49.488;9.900;2023-03-30T14:43:39;19.70;52.50
39325;DHT22;25037;49.488;9.900;2023-03-30T14:46:10;19.90;52.00
39325;DHT22;25037;49.488;9.900;2023-03-30T14:48:42;20.00;51.70
39325;DHT22;25037;49.488;9.900;2023-03-30T14:51:34;20.10;51.30
39325;DHT22;25037;49.488;9.900;2023-03-30T14:54:03;20.20;51.10
39325;DHT22;25037;49.488;9.900;2023-03-30T14:56:30;20.00;51.10
39325;DHT22;25037;49.488;9.900;2023-03-30T14:58:57;19.90;51.30
39325;DHT22;25037;49.488;9.900;2023-03-30T15:01:27;19.90;51.30
39325;DHT22;25037;49.488;9.900;2023-03-30T15:04:00;19.80;51.10
39325;DHT22;25037;49.488;9.900;2023-03-30T15:06:29;19.70;51.10
39325;DHT22;25037;49.488;9.900;2023-03-30T15:09:01;19.70;51.30
39325;DHT22;25037;49.488;9.900;2023-03-30T15:11:30;19.70;51.40
39325;DHT22;25037;49.488;9.900;2023-03-30T15:14:01;19.70;51.60
39325;DHT22;25037;49.488;9.900;2023-03-30T15:16:31;19.70;51.60
39325;DHT22;25037;49.488;9.900;2023-03-30T15:19:16;19.60;51.70
39325;DHT22;25037;49.488;9.900;2023-03-30T15:21:50;19.60;51.70
39325;DHT22;25037;49.488;9.900;2023-03-30T15:24:22;19.60;51.80
39325;DHT22;25037;49.488;9.900;2023-03-30T15:26:54;19.50;51.90
39325;DHT22;25037;49.488;9.900;2023-03-30T15:29:22;19.50;51.80
39325;DHT22;25037;49.488;9.900;2023-03-30T15:32:17;19.50;51.70
39325;DHT22;25037;49.488;9.900;2023-03-30T15:38:00;19.50;51.80
39325;DHT22;25037;49.488;9.900;2023-03-30T15:40:36;19.40;51.80
39325;DHT22;25037;49.488;9.900;2023-03-30T15:46:02;19.30;51.60
39325;DHT22;25037;49.488;9.900;2023-03-30T15:48:36;19.20;51.70
39325;DHT22;25037;49.488;9.900;2023-03-30T15:56:19;18.90;52.50
39325;DHT22;25037;49.488;9.900;2023-03-30T15:58:48;18.80;52.90
39325;DHT22;25037;49.488;9.900;2023-03-30T16:01:16;18.70;53.20
39325;DHT22;25037;49.488;9.900;2023-03-30T16:03:50;18.50;53.60
39325;DHT22;25037;49.488;9.900;2023-03-30T16:06:19;18.40;53.80
39325;DHT22;25037;49.488;9.900;2023-03-30T16:08:46;18.30;54.20
39325;DHT22;25037;49.488;9.900;2023-03-30T16:11:13;18.30;55.00
39325;DHT22;25037;49.488;9.900;2023-03-30T16:13:46;18.30;55.80
39325;DHT22;25037;49.488;9.900;2023-03-30T16:16:14;18.30;55.90
39325;DHT22;25037;49.488;9.900;2023-03-30T16:18:41;18.30;55.90
39325;DHT22;25037;49.488;9.900;2023-03-30T16:21:08;18.20;56.60
39325;DHT22;25037;49.488;9.900;2023-03-30T16:23:36;18.20;56.90
39325;DHT22;25037;49.488;9.900;2023-03-30T16:26:04;18.20;56.90
39325;DHT22;25037;49.488;9.900;2023-03-30T16:28:31;18.30;56.70
39325;DHT22;25037;49.488;9.900;2023-03-30T16:31:02;18.20;56.50
39325;DHT22;25037;49.488;9.900;2023-03-30T16:33:29;18.20;56.70
39325;DHT22;25037;49.488;9.900;2023-03-30T16:35:56;18.20;56.60
39325;DHT22;25037;49.488;9.900;2023-03-30T16:38:22;18.10;56.60
39325;DHT22;25037;49.488;9.900;2023-03-30T16:40:51;18.10;56.80
39325;DHT22;25037;49.488;9.900;2023-03-30T16:43:18;18.00;56.80
39325;DHT22;25037;49.488;9.900;2023-03-30T16:45:45;17.80;56.90
39325;DHT22;25037;49.488;9.900;2023-03-30T16:48:12;17.70;57.20
39325;DHT22;25037;49.488;9.900;2023-03-30T16:50:42;17.60;57.30
39325;DHT22;25037;49.488;9.900;2023-03-30T16:53:10;17.50;57.50
39325;DHT22;25037;49.488;9.900;2023-03-30T16:55:37;17.30;57.50
39325;DHT22;25037;49.488;9.900;2023-03-30T16:58:06;17.20;57.40
39325;DHT22;25037;49.488;9.900;2023-03-30T17:03:11;17.10;57.20
39325;DHT22;25037;49.488;9.900;2023-03-30T17:05:37;17.00;57.30
39325;DHT22;25037;49.488;9.900;2023-03-30T17:08:09;16.90;57.20
39325;DHT22;25037;49.488;9.900;2023-03-30T17:10:39;16.80;57.20
39325;DHT22;25037;49.488;9.900;2023-03-30T17:13:06;16.70;57.20
39325;DHT22;25037;49.488;9.900;2023-03-30T17:15:33;16.70;57.10
39325;DHT22;25037;49.488;9.900;2023-03-30T17:18:12;16.70;57.00
39325;DHT22;25037;49.488;9.900;2023-03-30T17:20:44;16.60;56.80
39325;DHT22;25037;49.488;9.900;2023-03-30T17:23:14;16.50;56.80
39325;DHT22;25037;49.488;9.900;2023-03-30T17:25:42;16.40;56.80
39325;DHT22;25037;49.488;9.900;2023-03-30T17:28:27;16.40;56.70
39325;DHT22;25037;49.488;9.900;2023-03-30T17:30:58;16.30;56.40
39325;DHT22;25037;49.488;9.900;2023-03-30T17:33:25;16.20;56.10
39325;DHT22;25037;49.488;9.900;2023-03-30T17:36:00;16.20;56.00
39325;DHT22;25037;49.488;9.900;2023-03-30T17:38:28;16.10;56.00
39325;DHT22;25037;49.488;9.900;2023-03-30T17:40:57;16.10;56.00
39325;DHT22;25037;49.488;9.900;2023-03-30T17:43:24;15.90;55.90
39325;DHT22;25037;49.488;9.900;2023-03-30T17:45:50;15.90;56.10
39325;DHT22;25037;49.488;9.900;2023-03-30T17:48:19;15.80;56.20
39325;DHT22;25037;49.488;9.900;2023-03-30T17:50:48;15.80;56.40
39325;DHT22;25037;49.488;9.900;2023-03-30T17:53:16;15.70;56.60
39325;DHT22;25037;49.488;9.900;2023-03-30T17:55:44;15.60;56.90
39325;DHT22;25037;49.488;9.900;2023-03-30T17:58:26;15.60;57.00
39325;DHT22;25037;49.488;9.900;2023-03-30T18:01:02;15.50;57.20
39325;DHT22;25037;49.488;9.900;2023-03-30T18:03:30;15.40;57.30
39325;DHT22;25037;49.488;9.900;2023-03-30T18:05:58;15.30;57.50
39325;DHT22;25037;49.488;9.900;2023-03-30T18:08:26;15.20;57.70
39325;DHT22;25037;49.488;9.900;2023-03-30T18:10:57;15.20;57.70
39325;DHT22;25037;49.488;9.900;2023-03-30T18:13:25;15.10;57.80
39325;DHT22;25037;49.488;9.900;2023-03-30T18:15:54;15.00;57.70